Time;durP1;ratioP1;P1;durP2;ratioP2;P2;SDS_P1;SDS_P2;PMS_P1;PMS_P2;Temp;Humidity;BMP_temperature;BMP_pressure;BME280_temperature;BME280_humidity;BME280_pressure;Samples;Min_cycle;Max_cycle;Signal;HPM_P1;HPM_P2
2023/08/08 04:01:21;;;;;;;1.73;1.70;;;12.50;97.30;;;;;;5575473;23;20865;-85
2023/08/08 04:03:46;;;;;;;1.67;1.57;;;12.50;97.30;;;;;;4931740;29;20440;-86
2023/08/08 04:06:12;;;;;;;1.40;1.30;;;12.50;97.30;;;;;;4932166;29;20179;-87
2023/08/08 04:08:37;;;;;;;1.00;0.90;;;12.50;97.30;;;;;;4932053;29;20701;-87
2023/08/08 04:11:03;;;;;;;1.00;0.90;;;12.50;97.30;;;;;;4925974;29;20749;-87
2023/08/08 04:13:29;;;;;;;1.00;0.90;;;12.50;97.30;;;;;;4913264;29;20203;-87
2023/08/08 04:15:54;;;;;;;1.10;1.00;;;12.50;97.30;;;;;;4913247;29;20188;-86
2023/08/08 04:18:20;;;;;;;1.00;0.90;;;12.60;97.30;;;;;;4913257;29;20208;-86
2023/08/08 04:20:46;;;;;;;1.13;1.03;;;12.60;97.30;;;;;;4914310;29;20196;-87
2023/08/08 04:23:12;;;;;;;2.30;2.10;;;12.60;97.30;;;;;;4912746;29;20257;-88
2023/08/08 04:25:38;;;;;;;1.10;1.00;;;12.70;97.30;;;;;;4912969;29;20515;-87
2023/08/08 04:28:04;;;;;;;1.10;1.00;;;12.70;97.30;;;;;;4913074;29;20196;-87
2023/08/08 04:30:29;;;;;;;1.20;1.10;;;12.80;97.30;;;;;;4913071;29;20288;-87
2023/08/08 04:32:55;;;;;;;1.40;1.30;;;12.80;97.30;;;;;;4913266;29;20177;-88
2023/08/08 04:35:20;;;;;;;1.00;0.90;;;12.80;97.30;;;;;;4913095;29;20181;-87
2023/08/08 04:37:46;;;;;;;2.17;1.80;;;12.90;97.30;;;;;;4913259;29;20251;-86
2023/08/08 04:40:11;;;;;;;1.00;0.90;;;12.90;97.30;;;;;;4913861;29;20180;-87
2023/08/08 04:42:37;;;;;;;1.07;0.97;;;12.90;97.30;;;;;;4913996;29;20196;-87
2023/08/08 04:45:03;;;;;;;1.60;1.53;;;13.00;97.30;;;;;;4914975;29;20188;-87
2023/08/08 04:47:29;;;;;;;1.00;0.90;;;13.00;97.30;;;;;;4913477;29;20333;-87
2023/08/08 04:49:54;;;;;;;1.10;1.00;;;13.00;97.30;;;;;;4914580;29;20522;-87
2023/08/08 04:52:20;;;;;;;1.10;1.00;;;13.10;97.30;;;;;;4913404;29;20204;-87
2023/08/08 04:54:45;;;;;;;1.40;1.30;;;13.10;97.30;;;;;;4913707;29;20307;-88
2023/08/08 04:57:11;;;;;;;1.43;1.33;;;13.10;97.30;;;;;;4917256;29;20192;-88
2023/08/08 04:59:36;;;;;;;1.10;1.00;;;13.10;97.30;;;;;;4926524;29;20192;-87
2023/08/08 05:02:02;;;;;;;1.10;1.00;;;13.10;97.30;;;;;;4912813;29;20417;-88
2023/08/08 05:04:28;;;;;;;1.10;1.00;;;13.20;97.30;;;;;;4918767;29;20254;-87
2023/08/08 05:06:53;;;;;;;0.90;0.80;;;13.20;97.30;;;;;;4911465;29;20216;-87
2023/08/08 05:09:20;;;;;;;1.00;0.90;;;13.20;97.30;;;;;;4911059;29;20189;-87
2023/08/08 05:11:46;;;;;;;3.60;2.50;;;13.20;97.30;;;;;;4912536;29;20256;-87
2023/08/08 05:14:11;;;;;;;1.17;1.07;;;13.20;97.30;;;;;;4912395;29;20428;-87
2023/08/08 05:16:37;;;;;;;1.03;0.93;;;13.20;97.30;;;;;;4912320;29;20203;-87
2023/08/08 05:19:04;;;;;;;1.47;1.37;;;13.30;97.30;;;;;;4912232;29;20851;-87
2023/08/08 05:21:29;;;;;;;1.20;1.10;;;13.30;97.30;;;;;;4912043;29;20523;-87
2023/08/08 05:23:55;;;;;;;1.10;1.00;;;13.30;97.30;;;;;;4911784;29;20219;-88
2023/08/08 05:26:20;;;;;;;4.00;2.03;;;13.30;97.30;;;;;;4912256;29;20189;-88
2023/08/08 05:28:46;;;;;;;1.73;1.63;;;13.30;97.30;;;;;;4914392;29;20272;-87
2023/08/08 05:31:11;;;;;;;1.00;0.90;;;13.30;97.30;;;;;;4915398;29;20311;-87
2023/08/08 05:33:37;;;;;;;1.10;1.00;;;13.40;97.30;;;;;;4915418;29;20185;-87
2023/08/08 05:36:03;;;;;;;1.20;1.10;;;13.40;97.30;;;;;;4915891;29;20231;-88
2023/08/08 05:38:28;;;;;;;1.10;1.00;;;13.40;97.30;;;;;;4915438;29;20231;-87
2023/08/08 05:40:54;;;;;;;2.60;1.57;;;13.40;97.30;;;;;;4915605;29;20878;-89
2023/08/08 05:43:21;;;;;;;1.20;1.17;;;13.40;97.30;;;;;;4915089;29;20185;-87
2023/08/08 05:45:47;;;;;;;1.00;0.90;;;13.40;97.30;;;;;;4915843;29;20275;-86
2023/08/08 05:48:12;;;;;;;1.20;1.10;;;13.50;97.30;;;;;;4917802;29;20548;-87
2023/08/08 05:50:39;;;;;;;1.20;1.10;;;13.50;97.30;;;;;;4917005;29;20618;-87
2023/08/08 05:53:05;;;;;;;1.10;1.00;;;13.50;97.30;;;;;;4917106;29;20188;-86
2023/08/08 05:55:30;;;;;;;1.10;1.00;;;13.50;97.30;;;;;;4916471;29;20417;-87
2023/08/08 05:57:56;;;;;;;1.10;1.00;;;13.50;97.30;;;;;;4915429;29;20208;-88
2023/08/08 06:00:21;;;;;;;1.10;1.00;;;13.50;97.30;;;;;;4916599;29;20271;-87
2023/08/08 06:02:47;;;;;;;1.83;1.73;;;13.60;97.30;;;;;;4916813;29;20440;-86
2023/08/08 06:05:13;;;;;;;1.20;1.10;;;13.60;97.30;;;;;;4915666;29;20197;-86
2023/08/08 06:07:39;;;;;;;1.40;1.30;;;13.60;97.30;;;;;;4923462;29;20500;-86
2023/08/08 06:10:05;;;;;;;1.00;0.90;;;13.60;97.30;;;;;;4915976;29;20192;-85
2023/08/08 06:12:31;;;;;;;1.30;1.20;;;13.70;97.30;;;;;;4915838;29;20445;-86
2023/08/08 06:14:56;;;;;;;1.40;1.30;;;13.70;97.30;;;;;;4916479;29;20444;-86
2023/08/08 06:17:23;;;;;;;1.00;0.90;;;13.70;97.30;;;;;;4921435;29;20215;-86
2023/08/08 06:19:50;;;;;;;1.00;0.90;;;13.80;97.30;;;;;;4914762;29;20184;-86
2023/08/08 06:22:15;;;;;;;2.30;2.10;;;13.80;97.30;;;;;;4918926;29;20461;-86
2023/08/08 06:24:41;;;;;;;2.27;2.07;;;13.90;97.30;;;;;;4914387;29;20444;-86
2023/08/08 06:27:07;;;;;;;1.83;1.43;;;13.90;97.30;;;;;;4921352;29;20432;-86
2023/08/08 06:29:32;;;;;;;1.20;1.10;;;14.00;97.30;;;;;;4915339;29;20703;-88
2023/08/08 06:31:58;;;;;;;1.00;0.90;;;14.00;97.30;;;;;;4913775;29;20216;-87
2023/08/08 06:34:23;;;;;;;1.20;1.10;;;14.10;97.30;;;;;;4914164;29;20295;-87
2023/08/08 06:36:49;;;;;;;0.97;0.87;;;14.10;97.30;;;;;;4914546;29;20185;-86
2023/08/08 06:39:21;;;;;;;1.10;1.00;;;14.10;97.30;;;;;;4914909;29;20300;-88
2023/08/08 06:41:46;;;;;;;1.10;1.00;;;14.10;97.30;;;;;;4913205;29;20204;-86
2023/08/08 06:44:12;;;;;;;1.33;1.23;;;14.20;97.30;;;;;;4914009;29;20505;-86
2023/08/08 06:46:37;;;;;;;1.00;0.90;;;14.20;97.30;;;;;;4915628;29;20249;-86
2023/08/08 06:49:04;;;;;;;1.53;1.10;;;14.20;97.30;;;;;;4913234;29;20252;-87
2023/08/08 06:51:29;;;;;;;3.83;3.20;;;14.20;97.30;;;;;;4913846;29;20204;-87
2023/08/08 06:53:55;;;;;;;1.07;1.03;;;14.30;97.30;;;;;;4913530;29;20435;-87
2023/08/08 06:56:21;;;;;;;1.10;1.00;;;14.30;97.30;;;;;;4915461;29;20199;-87
2023/08/08 06:58:46;;;;;;;1.20;1.10;;;14.40;97.30;;;;;;4914286;29;20468;-86
2023/08/08 07:01:13;;;;;;;1.30;1.20;;;14.50;97.30;;;;;;4913738;29;20232;-86
2023/08/08 07:03:39;;;;;;;2.87;1.30;;;14.50;97.30;;;;;;4913917;29;20554;-86
2023/08/08 07:06:05;;;;;;;0.97;0.87;;;14.60;97.30;;;;;;4914025;29;20416;-86
2023/08/08 07:08:31;;;;;;;1.37;1.10;;;14.70;97.30;;;;;;4915671;29;20999;-86
2023/08/08 07:10:57;;;;;;;1.17;1.07;;;14.70;97.30;;;;;;4922240;29;20483;-86
2023/08/08 07:13:23;;;;;;;1.00;0.90;;;14.80;97.30;;;;;;4913767;29;20460;-86
2023/08/08 07:15:49;;;;;;;1.10;1.00;;;14.90;97.30;;;;;;4914800;29;20429;-87
2023/08/08 07:18:15;;;;;;;1.20;1.10;;;15.00;97.30;;;;;;4912728;29;20216;-86
2023/08/08 07:20:40;;;;;;;1.07;0.97;;;15.00;97.30;;;;;;4916096;29;20192;-86
2023/08/08 07:23:06;;;;;;;1.27;1.17;;;15.00;97.30;;;;;;4915054;29;20421;-86
2023/08/08 07:25:32;;;;;;;1.17;1.07;;;15.00;97.30;;;;;;4914155;29;20191;-87
2023/08/08 07:27:57;;;;;;;1.27;1.17;;;15.10;97.30;;;;;;4915487;29;20195;-86
2023/08/08 07:30:25;;;;;;;1.53;1.27;;;15.10;97.30;;;;;;4918176;29;20203;-86
2023/08/08 07:32:51;;;;;;;1.57;1.20;;;15.10;97.30;;;;;;4913894;29;20259;-86
2023/08/08 07:35:17;;;;;;;1.00;0.90;;;15.10;97.30;;;;;;4915191;29;20484;-86
2023/08/08 07:37:43;;;;;;;2.10;1.70;;;15.00;97.30;;;;;;4913550;29;20212;-86
2023/08/08 07:40:19;;;;;;;3.13;2.10;;;15.00;97.30;;;;;;4913363;29;20428;-86
2023/08/08 07:42:45;;;;;;;1.00;0.90;;;15.00;97.30;;;;;;4907912;29;20667;-86
2023/08/08 07:45:11;;;;;;;0.93;0.83;;;14.90;97.30;;;;;;4913151;29;20436;-88
2023/08/08 07:47:37;;;;;;;2.10;1.60;;;14.90;97.30;;;;;;4911796;29;20727;-86
2023/08/08 07:50:02;;;;;;;1.00;0.90;;;14.90;97.30;;;;;;4916970;29;20189;-87
2023/08/08 07:52:39;;;;;;;1.40;1.00;;;14.80;97.30;;;;;;4912399;29;20635;-86
2023/08/08 07:55:06;;;;;;;2.17;1.83;;;14.80;97.30;;;;;;4913301;29;20195;-86
2023/08/08 07:57:34;;;;;;;3.77;1.93;;;14.80;97.30;;;;;;4912948;29;20428;-86
2023/08/08 08:00:07;;;;;;;0.97;0.87;;;14.80;97.30;;;;;;4913296;29;20435;-85
2023/08/08 08:02:32;;;;;;;1.73;1.57;;;14.80;97.30;;;;;;4912194;29;20484;-86
2023/08/08 08:04:58;;;;;;;1.07;0.97;;;14.80;97.30;;;;;;4912554;29;20467;-86
2023/08/08 08:07:23;;;;;;;1.03;0.97;;;14.80;97.30;;;;;;4912469;29;20184;-88
2023/08/08 08:09:49;;;;;;;1.30;1.20;;;14.80;97.30;;;;;;4913355;29;20196;-85
2023/08/08 08:12:14;;;;;;;1.00;0.90;;;14.80;97.30;;;;;;4913035;29;20205;-86
2023/08/08 08:14:40;;;;;;;0.93;0.87;;;14.80;97.30;;;;;;4920773;29;20229;-86
2023/08/08 08:17:05;;;;;;;3.40;3.20;;;14.80;97.30;;;;;;4914691;29;20185;-87
2023/08/08 08:19:31;;;;;;;1.00;0.90;;;14.80;97.30;;;;;;4913737;29;20276;-86
2023/08/08 08:21:59;;;;;;;1.47;1.37;;;14.80;97.30;;;;;;4914362;29;20552;-86
2023/08/08 08:24:27;;;;;;;1.10;1.00;;;14.80;97.30;;;;;;4912786;29;20224;-86
2023/08/08 08:26:53;;;;;;;1.00;0.90;;;14.80;97.30;;;;;;4913224;29;20524;-85
2023/08/08 08:29:32;;;;;;;1.93;1.40;;;14.90;97.30;;;;;;4913860;29;20927;-90
2023/08/08 08:31:58;;;;;;;1.00;0.90;;;14.90;97.30;;;;;;4915257;29;20216;-87
2023/08/08 08:34:49;;;;;;;1.10;1.00;;;15.00;97.30;;;;;;4913454;29;20432;-87
2023/08/08 08:37:22;;;;;;;1.00;0.90;;;15.00;97.30;;;;;;4910395;29;20205;-89
2023/08/08 08:39:50;;;;;;;1.47;1.37;;;15.00;97.30;;;;;;4906376;29;20488;-86
2023/08/08 08:42:19;;;;;;;2.20;1.37;;;15.00;97.30;;;;;;4914225;29;20465;-87
2023/08/08 08:44:45;;;;;;;1.20;1.13;;;15.00;97.30;;;;;;4913238;29;20468;-86
2023/08/08 08:47:12;;;;;;;1.13;1.03;;;15.00;97.30;;;;;;4913139;29;20479;-87
2023/08/08 08:49:41;;;;;;;1.00;0.90;;;15.00;97.30;;;;;;4912746;29;20424;-86
2023/08/08 08:52:07;;;;;;;1.10;1.00;;;15.00;97.30;;;;;;4917102;29;20449;-87
2023/08/08 08:54:35;;;;;;;1.00;0.90;;;15.00;97.30;;;;;;4919159;29;20475;-85
2023/08/08 08:57:01;;;;;;;1.37;1.27;;;15.10;97.30;;;;;;4918853;29;20424;-87
2023/08/08 08:59:26;;;;;;;1.10;1.00;;;15.00;97.30;;;;;;4922186;29;20508;-87
2023/08/08 09:01:53;;;;;;;2.03;1.90;;;15.00;97.30;;;;;;4915543;29;20268;-87
2023/08/08 09:04:20;;;;;;;0.97;0.87;;;15.00;97.30;;;;;;4923375;29;20180;-87
2023/08/08 09:06:47;;;;;;;2.23;2.03;;;15.00;97.30;;;;;;4924421;29;20456;-87
2023/08/08 09:09:15;;;;;;;1.10;1.00;;;14.90;97.30;;;;;;4922587;29;20440;-85
2023/08/08 09:11:42;;;;;;;1.00;0.90;;;14.90;97.30;;;;;;4924164;29;20883;-86
2023/08/08 09:14:26;;;;;;;1.43;1.10;;;14.90;97.30;;;;;;4924580;29;20510;-86
2023/08/08 09:16:53;;;;;;;2.10;1.50;;;14.80;97.30;;;;;;4925756;29;20428;-87
2023/08/08 09:19:20;;;;;;;1.93;1.53;;;14.80;97.30;;;;;;4923370;29;20467;-88
2023/08/08 09:21:47;;;;;;;1.00;0.90;;;14.80;97.30;;;;;;4921769;29;20432;-87
2023/08/08 09:24:13;;;;;;;1.20;1.10;;;14.80;97.30;;;;;;4922761;29;20428;-85
2023/08/08 09:26:40;;;;;;;1.20;1.10;;;14.80;97.30;;;;;;4923959;29;20983;-88
2023/08/08 09:29:09;;;;;;;1.30;1.20;;;14.80;97.30;;;;;;4942606;28;20508;-87
2023/08/08 09:31:35;;;;;;;1.00;0.90;;;14.80;97.30;;;;;;4942716;29;20444;-87
2023/08/08 09:34:03;;;;;;;2.20;2.07;;;14.80;97.30;;;;;;4941485;29;20424;-87
2023/08/08 09:36:29;;;;;;;1.03;1.03;;;14.80;97.30;;;;;;4923699;29;20988;-86
2023/08/08 09:38:56;;;;;;;2.17;2.00;;;14.90;97.30;;;;;;4926857;29;20467;-87
2023/08/08 09:41:25;;;;;;;1.80;1.33;;;15.00;97.30;;;;;;4923558;29;20465;-85
2023/08/08 09:43:52;;;;;;;1.10;1.00;;;15.20;97.30;;;;;;4918196;29;20425;-87
2023/08/08 09:46:21;;;;;;;1.80;1.70;;;15.30;97.30;;;;;;4919884;29;20922;-87
2023/08/08 09:48:47;;;;;;;7.40;1.50;;;15.40;97.30;;;;;;4911508;29;20421;-86
2023/08/08 09:51:13;;;;;;;1.07;0.97;;;15.60;97.30;;;;;;4917565;29;20440;-86
2023/08/08 09:53:40;;;;;;;1.20;1.10;;;15.80;97.30;;;;;;4917355;29;20189;-85
2023/08/08 09:56:07;;;;;;;1.13;1.13;;;15.90;97.30;;;;;;4917318;29;20425;-86
2023/08/08 09:58:33;;;;;;;1.97;1.60;;;16.10;97.30;;;;;;4917346;29;20468;-87
2023/08/08 10:00:58;;;;;;;1.00;0.90;;;16.20;97.30;;;;;;4917154;29;20551;-86
2023/08/08 10:03:24;;;;;;;1.57;1.10;;;16.30;97.30;;;;;;4917443;29;20572;-87
2023/08/08 10:05:50;;;;;;;16.53;1.20;;;16.40;97.30;;;;;;4917568;29;20191;-87
2023/08/08 10:08:16;;;;;;;1.10;1.00;;;16.50;97.30;;;;;;4917093;29;20193;-87
2023/08/08 10:10:44;;;;;;;1.10;1.00;;;16.70;97.30;;;;;;4917494;29;20219;-88
2023/08/08 10:13:18;;;;;;;0.90;0.80;;;16.90;97.30;;;;;;4953823;23;20440;-68
2023/08/08 10:15:44;;;;;;;0.97;0.87;;;17.20;97.30;;;;;;4913418;29;20522;-69
2023/08/08 10:18:09;;;;;;;1.87;1.43;;;17.50;97.30;;;;;;4914414;29;20579;-68
2023/08/08 10:20:37;;;;;;;0.90;0.80;;;17.60;97.30;;;;;;4910108;29;20746;-66
2023/08/08 10:23:03;;;;;;;1.40;1.30;;;17.70;97.30;;;;;;4912713;29;20181;-67
2023/08/08 10:25:30;;;;;;;1.10;1.00;;;17.70;96.40;;;;;;4894532;29;20449;-68
2023/08/08 10:28:11;;;;;;;1.00;0.90;;;17.70;96.30;;;;;;4902854;29;20436;-70
2023/08/08 10:30:52;;;;;;;1.00;0.90;;;17.70;96.30;;;;;;4917484;29;20453;-70
2023/08/08 10:33:23;;;;;;;1.40;1.30;;;17.70;96.70;;;;;;4900116;29;20429;-72
2023/08/08 10:36:04;;;;;;;1.13;1.03;;;17.60;96.60;;;;;;4917218;29;20445;-68
2023/08/08 10:38:49;;;;;;;1.47;1.37;;;17.60;97.10;;;;;;4898456;29;20472;-69
2023/08/08 10:41:20;;;;;;;1.30;1.20;;;17.40;97.30;;;;;;4907022;29;20456;-70
2023/08/08 10:43:54;;;;;;;1.10;1.00;;;17.40;97.30;;;;;;4895151;29;20453;-69
2023/08/08 10:46:29;;;;;;;1.30;1.20;;;17.50;97.30;;;;;;4893449;29;20488;-71
2023/08/08 10:48:59;;;;;;;0.90;0.80;;;17.60;97.30;;;;;;4886188;29;20433;-70
2023/08/08 10:51:42;;;;;;;1.13;1.03;;;17.70;97.30;;;;;;4892606;29;20453;-71
2023/08/08 10:54:19;;;;;;;1.30;1.20;;;17.80;96.80;;;;;;4893978;29;20528;-69
2023/08/08 10:56:53;;;;;;;1.67;1.40;;;17.90;96.10;;;;;;4896083;29;20752;-70
2023/08/08 10:59:26;;;;;;;0.90;0.80;;;17.90;95.80;;;;;;4896442;29;20492;-71
2023/08/08 11:01:52;;;;;;;3.90;1.27;;;17.90;95.70;;;;;;4894356;29;20441;-70
2023/08/08 11:04:21;;;;;;;1.00;0.90;;;17.80;95.40;;;;;;4895579;29;20497;-67
2023/08/08 11:06:47;;;;;;;1.37;1.27;;;17.80;94.40;;;;;;4895994;29;20425;-72
2023/08/08 11:09:14;;;;;;;1.47;1.30;;;17.90;95.50;;;;;;4895185;29;20426;-71
2023/08/08 11:11:41;;;;;;;2.40;1.23;;;18.00;94.70;;;;;;4909996;29;20536;-71
2023/08/08 11:14:14;;;;;;;1.40;1.30;;;18.20;94.90;;;;;;4894631;29;20504;-71
2023/08/08 11:16:41;;;;;;;1.00;0.90;;;18.30;94.90;;;;;;4894544;29;20484;-71
2023/08/08 11:19:08;;;;;;;0.80;0.70;;;18.40;94.40;;;;;;4895128;29;20508;-68
2023/08/08 11:21:39;;;;;;;1.87;1.77;;;18.40;93.90;;;;;;4895393;29;20517;-68
2023/08/08 11:24:06;;;;;;;1.00;0.90;;;18.40;94.20;;;;;;4894121;29;20441;-70
2023/08/08 11:26:32;;;;;;;1.03;0.97;;;18.50;94.70;;;;;;4894635;29;20546;-69
2023/08/08 11:28:59;;;;;;;1.70;1.60;;;18.70;95.10;;;;;;4896346;29;20944;-68
2023/08/08 11:31:25;;;;;;;1.67;1.30;;;18.80;93.70;;;;;;4904452;29;20453;-68
2023/08/08 11:33:54;;;;;;;1.03;0.93;;;19.00;94.40;;;;;;4896140;29;20444;-67
2023/08/08 11:36:20;;;;;;;1.07;0.97;;;19.20;93.70;;;;;;4888489;29;20205;-69
2023/08/08 11:38:46;;;;;;;1.10;1.00;;;19.40;93.50;;;;;;4901569;29;20465;-69
2023/08/08 11:41:14;;;;;;;4.10;0.90;;;19.50;91.80;;;;;;4894445;29;20463;-68
2023/08/08 11:43:41;;;;;;;1.00;0.90;;;19.70;91.20;;;;;;4894253;29;20429;-66
2023/08/08 11:46:12;;;;;;;1.00;0.90;;;19.80;92.10;;;;;;4895330;29;20437;-68
2023/08/08 11:48:38;;;;;;;1.73;1.63;;;19.80;92.50;;;;;;4895359;29;20522;-69
2023/08/08 11:51:08;;;;;;;1.37;0.97;;;20.00;92.10;;;;;;4893892;29;20833;-68
2023/08/08 11:53:34;;;;;;;1.63;1.60;;;20.20;90.80;;;;;;4892079;29;20445;-67
2023/08/08 11:56:00;;;;;;;1.63;1.33;;;20.20;89.30;;;;;;4895031;29;20503;-68
2023/08/08 11:58:26;;;;;;;1.10;1.00;;;20.10;89.20;;;;;;4894471;29;20461;-67
2023/08/08 12:00:54;;;;;;;1.23;1.13;;;20.10;89.90;;;;;;4893490;29;20453;-67
2023/08/08 12:03:20;;;;;;;1.53;1.07;;;20.00;90.00;;;;;;4894093;29;20520;-67
2023/08/08 12:05:47;;;;;;;2.70;2.07;;;20.10;90.50;;;;;;4894001;29;20417;-69
2023/08/08 12:08:13;;;;;;;1.13;1.03;;;20.10;89.00;;;;;;4892247;29;20485;-68
2023/08/08 12:10:38;;;;;;;1.00;0.90;;;19.90;88.30;;;;;;4892001;29;20540;-68
2023/08/08 12:13:05;;;;;;;1.10;1.00;;;19.70;89.80;;;;;;4893544;29;20933;-67
2023/08/08 12:15:35;;;;;;;1.07;0.97;;;19.50;89.40;;;;;;4893253;29;20605;-68
2023/08/08 12:18:02;;;;;;;1.10;1.00;;;19.40;90.10;;;;;;4893171;29;20540;-67
2023/08/08 12:20:29;;;;;;;1.10;1.00;;;19.30;90.90;;;;;;4891504;29;20455;-68
2023/08/08 12:22:55;;;;;;;1.53;1.43;;;19.30;90.90;;;;;;4893423;29;20457;-69
2023/08/08 12:25:20;;;;;;;1.37;1.33;;;19.30;90.80;;;;;;4892382;29;20461;-68
2023/08/08 12:27:46;;;;;;;1.33;1.30;;;19.40;90.90;;;;;;4893331;29;20582;-67
2023/08/08 12:30:12;;;;;;;1.37;1.30;;;19.50;90.40;;;;;;4892183;29;20199;-66
2023/08/08 12:32:38;;;;;;;1.43;1.23;;;19.80;90.20;;;;;;4893366;29;20646;-69
2023/08/08 12:35:04;;;;;;;1.20;1.10;;;20.10;90.10;;;;;;4893468;29;20756;-68
2023/08/08 12:37:29;;;;;;;1.53;1.43;;;20.30;88.20;;;;;;4894682;29;20197;-68
2023/08/08 12:39:55;;;;;;;2.30;1.57;;;20.60;88.50;;;;;;4896010;29;20800;-68
2023/08/08 12:42:21;;;;;;;3.60;1.30;;;20.80;87.00;;;;;;4895808;29;20209;-68
2023/08/08 12:44:46;;;;;;;2.80;1.57;;;20.90;88.10;;;;;;4897148;29;20177;-69
2023/08/08 12:47:12;;;;;;;1.33;1.17;;;20.90;86.40;;;;;;4895800;29;20192;-66
2023/08/08 12:49:38;;;;;;;0.93;0.83;;;21.00;86.70;;;;;;4895706;29;20270;-69
2023/08/08 12:52:04;;;;;;;1.30;1.10;;;20.90;85.80;;;;;;4897286;29;20201;-66
2023/08/08 12:54:30;;;;;;;1.20;1.10;;;20.80;84.90;;;;;;4895922;29;20192;-68
2023/08/08 12:56:55;;;;;;;2.70;1.10;;;20.70;86.20;;;;;;4889998;29;20182;-69
2023/08/08 12:59:21;;;;;;;1.07;0.97;;;20.70;86.90;;;;;;4893445;29;20641;-69
2023/08/08 13:01:47;;;;;;;1.33;1.17;;;20.80;86.60;;;;;;4894288;29;20237;-69
2023/08/08 13:04:12;;;;;;;1.20;1.10;;;20.90;85.00;;;;;;4894700;29;20273;-70
2023/08/08 13:06:38;;;;;;;1.07;0.97;;;20.90;85.20;;;;;;4896955;29;20265;-68
2023/08/08 13:09:04;;;;;;;1.00;0.90;;;21.10;86.10;;;;;;4895405;29;20220;-69
2023/08/08 13:11:29;;;;;;;0.90;0.80;;;21.30;85.20;;;;;;4896503;29;20209;-70
2023/08/08 13:13:55;;;;;;;1.40;1.37;;;21.50;84.90;;;;;;4911146;29;20241;-68
2023/08/08 13:16:21;;;;;;;4.93;1.77;;;21.40;84.10;;;;;;4895378;29;20702;-69
2023/08/08 13:18:47;;;;;;;1.53;1.50;;;21.20;83.60;;;;;;4895788;29;20332;-68
2023/08/08 13:21:13;;;;;;;1.00;0.90;;;21.00;83.80;;;;;;4892786;29;20553;-69
2023/08/08 13:23:40;;;;;;;1.40;1.30;;;20.90;84.80;;;;;;4892679;29;20193;-70
2023/08/08 13:26:05;;;;;;;1.20;1.20;;;20.70;84.90;;;;;;4894564;29;20433;-71
2023/08/08 13:28:31;;;;;;;1.40;1.40;;;20.60;84.60;;;;;;4895797;29;20440;-68
2023/08/08 13:30:57;;;;;;;1.37;0.90;;;20.50;85.50;;;;;;4896152;29;20308;-69
2023/08/08 13:33:22;;;;;;;0.90;0.90;;;20.50;85.80;;;;;;4896360;29;20189;-69
2023/08/08 13:35:48;;;;;;;1.10;1.00;;;20.40;85.80;;;;;;4900288;29;20181;-70
2023/08/08 13:38:14;;;;;;;1.23;1.20;;;20.30;85.80;;;;;;4896407;29;20666;-69
2023/08/08 13:40:43;;;;;;;2.33;1.73;;;20.30;85.30;;;;;;4893511;29;20197;-69
2023/08/08 13:43:09;;;;;;;1.00;0.90;;;20.20;86.00;;;;;;4895672;29;20470;-68
2023/08/08 13:45:35;;;;;;;0.90;0.80;;;20.10;85.30;;;;;;4891918;29;20413;-69
2023/08/08 13:48:01;;;;;;;1.10;1.00;;;20.00;86.20;;;;;;4888640;29;21014;-69
2023/08/08 13:50:26;;;;;;;0.80;0.70;;;20.00;89.20;;;;;;4888289;29;20205;-69
2023/08/08 13:52:53;;;;;;;2.30;1.37;;;19.80;90.40;;;;;;4879956;29;20566;-69
2023/08/08 13:55:18;;;;;;;1.00;0.90;;;19.70;90.30;;;;;;4888254;29;20280;-69
2023/08/08 13:57:44;;;;;;;1.00;0.90;;;19.70;90.40;;;;;;4891998;29;20919;-69
2023/08/08 14:00:12;;;;;;;1.67;1.20;;;19.80;91.30;;;;;;4907226;29;20185;-68
2023/08/08 14:02:38;;;;;;;0.97;0.87;;;19.80;90.30;;;;;;4892333;29;20203;-68
2023/08/08 14:05:06;;;;;;;1.00;0.97;;;19.90;89.20;;;;;;4889901;29;20441;-69
2023/08/08 14:07:35;;;;;;;1.00;0.90;;;20.00;88.70;;;;;;4889045;29;20473;-69
2023/08/08 14:10:02;;;;;;;2.10;1.07;;;20.00;86.10;;;;;;4888812;29;20948;-68
2023/08/08 14:12:27;;;;;;;1.27;1.17;;;19.90;85.10;;;;;;4894724;29;20453;-68
2023/08/08 14:14:53;;;;;;;1.63;1.10;;;19.80;84.90;;;;;;4891986;29;20477;-68
2023/08/08 14:17:18;;;;;;;1.67;1.10;;;19.80;85.80;;;;;;4894644;29;20189;-67
2023/08/08 14:19:44;;;;;;;1.30;1.20;;;19.70;86.20;;;;;;4898860;29;20356;-67
2023/08/08 14:22:10;;;;;;;1.27;1.20;;;19.60;87.10;;;;;;4899205;29;20901;-68
2023/08/08 14:24:36;;;;;;;2.10;1.63;;;19.40;88.10;;;;;;4892447;29;20189;-68
2023/08/08 14:27:02;;;;;;;1.00;0.90;;;19.20;89.30;;;;;;4899798;29;20509;-67
2023/08/08 14:29:27;;;;;;;3.03;1.50;;;19.00;90.60;;;;;;4895130;29;20883;-68
2023/08/08 14:31:53;;;;;;;1.40;1.30;;;18.90;92.00;;;;;;4890146;29;20216;-67
2023/08/08 14:34:19;;;;;;;0.90;0.80;;;18.80;91.50;;;;;;4897517;29;20199;-67
2023/08/08 14:36:45;;;;;;;1.03;0.97;;;18.80;93.90;;;;;;4896789;29;20193;-67
2023/08/08 14:39:11;;;;;;;1.40;1.30;;;18.90;91.60;;;;;;4912195;29;20248;-67
2023/08/08 14:41:36;;;;;;;1.10;1.00;;;18.80;91.20;;;;;;4895558;29;20257;-67
2023/08/08 14:44:02;;;;;;;1.00;0.90;;;18.80;92.00;;;;;;4893509;29;20425;-66
2023/08/08 14:46:29;;;;;;;1.60;1.50;;;18.80;92.30;;;;;;4891850;29;20186;-67
2023/08/08 14:48:54;;;;;;;18.40;1.97;;;18.70;92.60;;;;;;4895665;29;20507;-67
2023/08/08 14:51:20;;;;;;;6.30;1.20;;;18.70;93.90;;;;;;4892074;29;20450;-67
2023/08/08 14:53:46;;;;;;;1.40;1.30;;;18.70;94.20;;;;;;4892694;29;20193;-67
2023/08/08 14:56:11;;;;;;;1.57;1.40;;;18.70;94.00;;;;;;4900104;29;20199;-66
2023/08/08 14:58:37;;;;;;;1.30;1.23;;;18.60;93.30;;;;;;4894579;29;20296;-70
2023/08/08 15:01:02;;;;;;;2.17;1.90;;;18.60;94.10;;;;;;4909175;29;20235;-64
2023/08/08 15:03:28;;;;;;;3.17;2.30;;;18.50;94.00;;;;;;4884131;29;20257;-65
2023/08/08 15:05:53;;;;;;;8.03;1.30;;;18.50;93.90;;;;;;4889708;29;20235;-66
2023/08/08 15:08:21;;;;;;;1.33;1.23;;;18.40;93.60;;;;;;4889884;29;20193;-65
2023/08/08 15:10:46;;;;;;;1.10;1.00;;;18.40;94.30;;;;;;4894949;29;20212;-65
2023/08/08 15:13:12;;;;;;;1.67;1.57;;;18.40;94.10;;;;;;4894103;29;20441;-65
2023/08/08 15:15:37;;;;;;;2.10;1.57;;;18.40;94.00;;;;;;4889929;29;20193;-65
2023/08/08 15:18:03;;;;;;;1.53;1.20;;;18.30;94.60;;;;;;4897224;29;20797;-66
2023/08/08 15:20:29;;;;;;;1.47;1.37;;;18.30;94.70;;;;;;4898168;29;20207;-64
2023/08/08 15:22:54;;;;;;;1.67;1.27;;;18.30;93.60;;;;;;4891918;29;20189;-66
2023/08/08 15:25:20;;;;;;;1.70;1.20;;;18.30;93.60;;;;;;4895129;29;20217;-66
2023/08/08 15:27:45;;;;;;;1.30;1.20;;;18.30;93.40;;;;;;4888574;29;20239;-66
2023/08/08 15:30:11;;;;;;;1.10;1.00;;;18.30;93.60;;;;;;4891444;29;20617;-65
2023/08/08 15:32:37;;;;;;;1.00;0.90;;;18.30;93.70;;;;;;4892523;29;20462;-66
2023/08/08 15:35:03;;;;;;;1.37;1.13;;;18.30;93.60;;;;;;4891417;29;20181;-65
2023/08/08 15:37:28;;;;;;;1.00;0.90;;;18.20;92.90;;;;;;4892911;29;20189;-64
2023/08/08 15:39:54;;;;;;;1.43;1.00;;;18.20;92.30;;;;;;4910626;29;20213;-66
2023/08/08 15:42:20;;;;;;;1.20;1.10;;;18.20;92.80;;;;;;4889849;29;20213;-66
2023/08/08 15:44:45;;;;;;;10.30;1.53;;;18.30;92.80;;;;;;4894679;29;20202;-65
2023/08/08 15:47:11;;;;;;;0.90;0.90;;;18.40;93.30;;;;;;4885449;29;20196;-65
2023/08/08 15:49:37;;;;;;;3.77;1.63;;;18.40;92.60;;;;;;4890871;29;20245;-65
2023/08/08 15:52:02;;;;;;;1.00;0.90;;;18.50;92.30;;;;;;4883858;29;20268;-67
2023/08/08 15:54:28;;;;;;;0.87;0.80;;;18.50;92.50;;;;;;4893458;29;20662;-66
2023/08/08 15:56:54;;;;;;;1.00;0.90;;;18.60;92.10;;;;;;4894345;29;20184;-65
2023/08/08 15:59:20;;;;;;;1.13;1.03;;;18.80;92.40;;;;;;4893291;29;20213;-64
2023/08/08 16:01:46;;;;;;;2.40;1.40;;;18.80;91.70;;;;;;4892933;29;20722;-66
2023/08/08 16:04:14;;;;;;;4.23;1.67;;;18.80;92.20;;;;;;4892594;29;20569;-67
2023/08/08 16:06:40;;;;;;;1.90;1.43;;;18.70;92.40;;;;;;4890922;29;20178;-65
2023/08/08 16:09:06;;;;;;;1.40;1.33;;;18.60;93.20;;;;;;4891385;29;20430;-66
2023/08/08 16:11:31;;;;;;;1.07;0.97;;;18.50;93.10;;;;;;4892263;29;20288;-65
2023/08/08 16:13:57;;;;;;;1.37;1.20;;;18.50;92.70;;;;;;5037820;23;20205;-65
2023/08/08 16:16:22;;;;;;;2.07;1.20;;;18.40;92.40;;;;;;4924079;29;20192;-63
2023/08/08 16:18:48;;;;;;;1.40;1.10;;;18.40;92.50;;;;;;4923355;29;20230;-65
2023/08/08 16:21:13;;;;;;;1.40;1.10;;;18.40;92.90;;;;;;4919796;29;20212;-64
2023/08/08 16:23:39;;;;;;;1.00;0.90;;;18.40;92.60;;;;;;4905002;29;20195;-63
2023/08/08 16:26:04;;;;;;;1.40;1.30;;;18.40;92.80;;;;;;4904580;29;20191;-63
2023/08/08 16:28:30;;;;;;;1.37;1.27;;;18.40;92.40;;;;;;4906758;29;20702;-64
2023/08/08 16:30:56;;;;;;;4.50;1.50;;;18.40;92.30;;;;;;4907023;29;20203;-64
2023/08/08 16:33:22;;;;;;;1.07;0.97;;;18.40;92.50;;;;;;4906151;29;20172;-64
2023/08/08 16:35:48;;;;;;;1.30;1.20;;;18.40;92.60;;;;;;4904166;29;20185;-68
2023/08/08 16:38:14;;;;;;;1.00;0.90;;;18.40;92.70;;;;;;4908701;29;20480;-63
2023/08/08 16:40:39;;;;;;;1.47;1.37;;;18.40;93.00;;;;;;4904866;29;20204;-64
2023/08/08 16:43:05;;;;;;;1.07;1.00;;;18.30;92.90;;;;;;4905353;29;20181;-64